createdAt,value
2023-02-06T00:00:43.819Z,39.08
2023-02-06T00:03:45.965Z,41.37
2023-02-06T00:06:48.333Z,42.08
2023-02-06T00:09:50.240Z,40.81
2023-02-06T00:12:52.463Z,39.37
2023-02-06T00:15:54.823Z,41.90
2023-02-06T00:18:58.247Z,43.02
2023-02-06T00:22:00.249Z,40.01
2023-02-06T00:25:02.601Z,39.98
2023-02-06T00:28:05.262Z,41.64
2023-02-06T00:31:08.807Z,42.91
2023-02-06T00:34:10.871Z,40.49
2023-02-06T00:37:15.113Z,39.38
2023-02-06T00:40:18.169Z,42.15
2023-02-06T00:43:20.699Z,42.78
2023-02-06T00:46:23.033Z,41.11
2023-02-06T00:49:25.554Z,39.23
2023-02-06T00:52:27.988Z,42.04
2023-02-06T00:55:31.200Z,43.28
2023-02-06T00:58:33.297Z,40.23
2023-02-06T01:01:35.510Z,39.60
2023-02-06T01:04:37.709Z,42.05
2023-02-06T01:07:42.669Z,42.80
2023-02-06T01:10:45.989Z,40.59
2023-02-06T01:13:48.116Z,39.30
2023-02-06T01:16:51.546Z,41.40
2023-02-06T01:19:54.222Z,42.30
2023-02-06T01:22:56.249Z,41.61
2023-02-06T01:25:58.282Z,39.71
2023-02-06T01:29:02.167Z,42.08
2023-02-06T01:32:04.335Z,43.59
2023-02-06T01:35:08.505Z,40.44
2023-02-06T01:38:10.582Z,39.10
2023-02-06T01:41:13.604Z,42.16
2023-02-06T01:44:23.427Z,43.41
2023-02-06T01:47:25.577Z,40.31
2023-02-06T01:50:33.426Z,39.75
2023-02-06T01:53:36.236Z,42.26
2023-02-06T01:56:55.321Z,42.93
2023-02-06T02:00:01.764Z,40.88
2023-02-06T02:03:13.945Z,39.77
2023-02-06T02:06:20.987Z,41.65
2023-02-06T02:09:23.872Z,42.68
2023-02-06T02:12:26.342Z,40.08
2023-02-06T02:15:41.871Z,39.44
2023-02-06T02:19:13.989Z,43.20
2023-02-06T02:22:40.066Z,40.88
2023-02-06T02:25:47.722Z,40.24
2023-02-06T02:29:08.580Z,40.94
2023-02-06T02:32:28.536Z,42.78
2023-02-06T02:35:38.036Z,41.26
2023-02-06T02:38:54.551Z,39.95
2023-02-06T02:41:58.542Z,41.67
2023-02-06T02:45:12.366Z,42.92
2023-02-06T02:48:18.944Z,40.81
2023-02-06T02:51:23.818Z,38.83
2023-02-06T02:54:26.613Z,42.01
2023-02-06T02:57:31.938Z,43.09
2023-02-06T03:00:43.493Z,41.03
2023-02-06T03:03:48.522Z,39.62
2023-02-06T03:07:09.011Z,41.97
2023-02-06T03:10:30.357Z,41.54
2023-02-06T03:13:39.475Z,38.63
2023-02-06T03:16:59.676Z,39.24
2023-02-06T03:20:04.796Z,42.45
2023-02-06T03:23:08.836Z,41.78
2023-02-06T03:26:15.853Z,38.79
2023-02-06T03:29:19.330Z,40.39
2023-02-06T03:32:34.633Z,43.08
2023-02-06T03:35:38.653Z,41.59
2023-02-06T03:38:40.949Z,40.19
2023-02-06T03:41:44.545Z,40.63
2023-02-06T03:44:54.337Z,42.52
2023-02-06T03:48:00.918Z,40.99
2023-02-06T03:51:09.593Z,39.53
2023-02-06T03:54:14.418Z,40.90
2023-02-06T03:57:19.533Z,42.58
2023-02-06T04:00:21.959Z,41.67
2023-02-06T04:03:24.640Z,38.98
2023-02-06T04:06:26.694Z,41.53
2023-02-06T04:09:28.871Z,41.81
2023-02-06T04:12:31.568Z,39.46
2023-02-06T04:15:33.898Z,39.57
2023-02-06T04:18:35.988Z,41.97
2023-02-06T04:21:38.207Z,42.83
2023-02-06T04:24:41.580Z,40.47
2023-02-06T04:27:43.683Z,38.32
2023-02-06T04:30:48.905Z,40.18
2023-02-06T04:33:51.501Z,41.77
2023-02-06T04:36:53.504Z,40.60
2023-02-06T04:39:55.663Z,38.86
2023-02-06T04:42:57.813Z,40.29
2023-02-06T04:46:00.391Z,41.51
2023-02-06T04:49:02.421Z,38.81
2023-02-06T04:52:04.634Z,38.42
2023-02-06T04:55:07.119Z,40.38
2023-02-06T04:58:09.580Z,40.75
2023-02-06T05:01:11.759Z,40.69
2023-02-06T05:04:13.787Z,38.93
2023-02-06T05:07:15.903Z,40.92
2023-02-06T05:10:18.063Z,42.04
2023-02-06T05:13:20.332Z,41.57
2023-02-06T05:16:22.736Z,38.39
2023-02-06T05:19:24.937Z,40.41
2023-02-06T05:22:27.188Z,41.53
2023-02-06T05:25:30.002Z,39.89
2023-02-06T05:28:33.664Z,38.34
2023-02-06T05:31:36.443Z,40.38
2023-02-06T05:34:38.631Z,41.34
2023-02-06T05:37:40.900Z,39.67
2023-02-06T05:40:42.993Z,37.86
2023-02-06T05:43:45.109Z,40.52
2023-02-06T05:46:48.632Z,41.28
2023-02-06T05:49:50.621Z,38.95
2023-02-06T05:52:52.745Z,40.39
2023-02-06T05:55:54.951Z,46.13
2023-02-06T05:58:57.079Z,51.14
2023-02-06T06:01:59.193Z,52.71
2023-02-06T06:05:01.388Z,50.82
2023-02-06T06:08:03.657Z,55.20
2023-02-06T06:11:05.917Z,56.32
2023-02-06T06:14:08.110Z,57.32
2023-02-06T06:17:10.186Z,57.88
2023-02-06T06:20:12.315Z,60.72
2023-02-06T06:23:14.700Z,63.30
2023-02-06T06:26:16.938Z,64.25
2023-02-06T06:29:19.079Z,61.68
2023-02-06T06:32:21.065Z,63.90
2023-02-06T06:35:23.109Z,65.74
2023-02-06T06:38:25.441Z,65.69
2023-02-06T06:41:27.560Z,64.11
2023-02-06T06:44:29.644Z,65.08
2023-02-06T06:47:31.758Z,68.97
2023-02-06T06:50:33.903Z,69.68
2023-02-06T06:53:40.205Z,70.54
2023-02-06T06:56:42.606Z,75.65
2023-02-06T06:59:44.927Z,75.44
2023-02-06T07:02:47.513Z,73.75
2023-02-06T07:05:55.299Z,74.02
2023-02-06T07:08:57.523Z,74.58
2023-02-06T07:12:01.999Z,74.40
2023-02-06T07:15:05.095Z,71.80
2023-02-06T07:18:07.097Z,69.88
2023-02-06T07:21:10.570Z,71.23
2023-02-06T07:24:12.618Z,69.25
2023-02-06T07:27:15.003Z,66.60
2023-02-06T07:30:17.475Z,64.63
2023-02-06T07:33:19.572Z,64.19
2023-02-06T07:36:21.656Z,63.46
2023-02-06T07:39:23.764Z,61.32
2023-02-06T07:42:25.869Z,60.78
2023-02-06T07:45:33.281Z,60.80
2023-02-06T07:48:35.361Z,59.00
2023-02-06T07:51:37.604Z,58.88
2023-02-06T07:54:39.658Z,57.78
2023-02-06T07:57:42.771Z,59.61
2023-02-06T08:00:45.976Z,58.10
2023-02-06T08:03:52.143Z,56.60
2023-02-06T08:06:54.123Z,53.13
2023-02-06T08:09:56.159Z,55.33
2023-02-06T08:12:58.130Z,55.64
2023-02-06T08:16:07.201Z,54.90
2023-02-06T08:19:11.140Z,52.11
2023-02-06T08:22:13.196Z,53.74
2023-02-06T08:25:15.537Z,53.87
2023-02-06T08:28:17.817Z,52.11
2023-02-06T08:31:25.872Z,51.45
2023-02-06T08:34:28.436Z,52.81
2023-02-06T08:37:32.026Z,52.57
2023-02-06T08:40:34.217Z,52.25
2023-02-06T08:43:36.226Z,49.25
2023-02-06T08:46:40.246Z,51.98
2023-02-06T08:49:42.266Z,51.05
2023-02-06T08:52:44.352Z,49.62
2023-02-06T08:55:46.483Z,49.38
2023-02-06T08:58:48.598Z,49.21
2023-02-06T09:01:52.269Z,50.00
2023-02-06T09:04:54.536Z,48.12
2023-02-06T09:07:56.770Z,45.20
2023-02-06T09:11:06.865Z,47.96
2023-02-06T09:14:13.077Z,48.76
2023-02-06T09:17:15.182Z,46.33
2023-02-06T09:20:17.500Z,46.75
2023-02-06T09:23:19.916Z,49.68
2023-02-06T09:26:27.654Z,62.47
2023-02-06T09:29:34.062Z,64.15
2023-02-06T09:32:38.070Z,63.19
2023-02-06T09:35:40.075Z,64.93
2023-02-06T09:38:46.625Z,52.77
2023-02-06T09:41:54.630Z,57.27
2023-02-06T09:45:28.352Z,51.36
2023-02-06T09:48:35.091Z,47.19
2023-02-06T09:51:55.331Z,38.91
2023-02-06T09:55:16.389Z,39.43
2023-02-06T09:59:09.536Z,48.37
2023-02-06T10:02:17.242Z,53.41
2023-02-06T10:05:25.074Z,54.61
2023-02-06T10:08:39.243Z,51.82
2023-02-06T10:11:54.912Z,54.37
2023-02-06T10:15:11.340Z,53.81
2023-02-06T10:18:43.988Z,40.37
2023-02-06T10:21:55.596Z,33.77
2023-02-06T10:25:13.540Z,32.36
2023-02-06T10:28:20.921Z,33.49
2023-02-06T10:31:26.131Z,38.44
2023-02-06T10:34:40.337Z,40.53
2023-02-06T10:37:57.208Z,41.79
2023-02-06T10:41:10.143Z,44.02
2023-02-06T10:44:28.189Z,43.53
2023-02-06T10:47:41.499Z,42.62
2023-02-06T10:50:59.968Z,42.77
2023-02-06T10:54:04.933Z,44.37
2023-02-06T10:57:17.558Z,47.65
2023-02-06T11:00:28.239Z,48.61
2023-02-06T11:03:32.332Z,47.35
2023-02-06T11:06:34.681Z,45.08
2023-02-06T11:09:37.007Z,45.86
2023-02-06T11:12:44.540Z,45.70
2023-02-06T11:16:02.410Z,44.00
2023-02-06T11:19:32.422Z,44.00
2023-02-06T11:22:41.599Z,48.56
2023-02-06T11:26:20.158Z,53.08
2023-02-06T11:29:26.699Z,55.90
2023-02-06T11:32:43.920Z,58.39
2023-02-06T11:36:00.040Z,61.19
2023-02-06T11:39:07.054Z,66.55
2023-02-06T11:42:22.380Z,73.78
2023-02-06T11:45:32.079Z,72.06
2023-02-06T11:48:40.522Z,53.77
2023-02-06T11:51:54.519Z,49.15
2023-02-06T11:55:01.878Z,59.09
2023-02-06T11:58:13.024Z,70.64
2023-02-06T12:01:21.302Z,77.76
2023-02-06T12:04:39.064Z,77.66
2023-02-06T12:07:43.587Z,79.83
2023-02-06T12:11:03.176Z,80.20
2023-02-06T12:14:11.480Z,79.23
2023-02-06T12:17:40.034Z,78.66
2023-02-06T12:21:05.662Z,79.81
2023-02-06T12:24:28.869Z,76.00
2023-02-06T12:27:39.024Z,79.88
2023-02-06T12:31:01.110Z,79.97
2023-02-06T12:34:14.889Z,77.07
2023-02-06T12:37:46.808Z,76.35
2023-02-06T12:41:00.343Z,77.62
2023-02-06T12:44:44.312Z,76.39
2023-02-06T12:47:54.785Z,77.08
2023-02-06T12:51:10.876Z,76.29
2023-02-06T12:54:19.884Z,75.36
2023-02-06T12:57:23.791Z,74.40
2023-02-06T13:00:46.475Z,75.06
2023-02-06T13:03:56.527Z,76.03
2023-02-06T13:07:07.339Z,71.44
2023-02-06T13:10:21.825Z,72.62
2023-02-06T13:13:26.470Z,73.74
2023-02-06T13:16:49.156Z,72.27
2023-02-06T13:20:19.493Z,71.93
2023-02-06T13:23:37.066Z,72.08
2023-02-06T13:31:31.747Z,69.25
2023-02-06T13:34:53.068Z,68.18
2023-02-06T13:38:48.404Z,69.03
2023-02-06T13:42:50.287Z,68.39
2023-02-06T13:45:57.798Z,66.07
2023-02-06T13:49:14.973Z,65.11
2023-02-06T13:52:24.669Z,63.77
2023-02-06T13:55:44.058Z,64.24
2023-02-06T13:58:52.672Z,63.99
2023-02-06T14:01:56.008Z,62.28
2023-02-06T14:04:59.057Z,62.06
2023-02-06T14:08:23.244Z,60.53
2023-02-06T14:12:03.278Z,60.14
2023-02-06T14:15:20.524Z,60.06
2023-02-06T14:18:22.515Z,60.37
2023-02-06T14:21:39.521Z,58.70
2023-02-06T14:25:04.275Z,58.44
2023-02-06T14:28:08.952Z,58.94
2023-02-06T14:31:48.879Z,59.60
2023-02-06T14:35:16.825Z,58.90
2023-02-06T14:38:33.630Z,57.80
2023-02-06T14:41:39.603Z,57.04
2023-02-06T14:44:43.423Z,60.54
2023-02-06T14:47:46.772Z,60.46
2023-02-06T14:50:56.670Z,58.27
2023-02-06T14:54:07.663Z,56.40
2023-02-06T14:57:35.890Z,57.12
2023-02-06T15:00:38.210Z,55.46
2023-02-06T15:03:41.989Z,57.27
2023-02-06T15:07:05.083Z,55.71
2023-02-06T15:10:11.980Z,55.97
2023-02-06T15:13:25.319Z,55.95
2023-02-06T15:16:44.670Z,56.66
2023-02-06T15:19:47.043Z,56.19
2023-02-06T15:22:49.740Z,55.47
2023-02-06T15:26:04.420Z,56.27
2023-02-06T15:29:19.792Z,56.38
2023-02-06T15:32:24.434Z,55.60
2023-02-06T15:35:39.127Z,55.60
2023-02-06T15:38:43.356Z,54.66
2023-02-06T15:41:48.242Z,54.95
2023-02-06T15:44:51.222Z,54.30
2023-02-06T15:47:55.106Z,54.65
2023-02-06T15:51:02.034Z,55.17
2023-02-06T15:54:15.998Z,54.38
2023-02-06T15:57:29.550Z,55.07
2023-02-06T16:00:34.997Z,54.19
2023-02-06T16:03:41.782Z,55.66
2023-02-06T16:06:45.769Z,54.84
2023-02-06T16:09:53.781Z,56.72
2023-02-06T16:13:00.192Z,51.63
2023-02-06T16:16:28.326Z,46.72
2023-02-06T16:19:48.558Z,44.41
2023-02-06T16:22:54.070Z,43.50
2023-02-06T16:26:12.974Z,42.74
2023-02-06T16:29:21.144Z,41.54
2023-02-06T16:32:30.081Z,45.56
2023-02-06T16:35:32.318Z,54.05
2023-02-06T16:38:34.473Z,58.48
2023-02-06T16:41:39.117Z,60.31
2023-02-06T16:44:45.371Z,59.13
2023-02-06T16:47:48.559Z,57.59
2023-02-06T16:50:50.626Z,55.66
2023-02-06T16:53:53.309Z,56.04
2023-02-06T16:57:00.533Z,54.89
2023-02-06T17:00:05.729Z,54.81
2023-02-06T17:03:07.875Z,54.23
2023-02-06T17:06:18.021Z,54.71
2023-02-06T17:09:20.142Z,53.74
2023-02-06T17:12:23.072Z,54.66
2023-02-06T17:15:25.286Z,52.19
2023-02-06T17:18:28.752Z,54.32
2023-02-06T17:21:33.314Z,53.33
2023-02-06T17:24:36.465Z,53.04
2023-02-06T17:27:40.345Z,52.04
2023-02-06T17:30:43.165Z,51.38
2023-02-06T17:33:46.010Z,51.40
2023-02-06T17:36:55.948Z,51.22
2023-02-06T17:40:10.325Z,52.33
2023-02-06T17:43:16.239Z,51.23
2023-02-06T17:46:18.451Z,50.62
2023-02-06T17:49:31.019Z,50.32
2023-02-06T17:52:33.256Z,48.86
2023-02-06T17:55:44.083Z,50.68
2023-02-06T17:58:46.206Z,49.11
2023-02-06T18:01:48.328Z,48.36
2023-02-06T18:04:53.043Z,50.18
2023-02-06T18:07:55.280Z,48.41
2023-02-06T18:10:58.848Z,49.17
2023-02-06T18:14:00.990Z,48.32
2023-02-06T18:17:03.961Z,48.06
2023-02-06T18:20:07.262Z,48.38
2023-02-06T18:23:09.617Z,48.84
2023-02-06T18:26:12.089Z,48.40
2023-02-06T18:29:21.430Z,49.28
2023-02-06T18:32:25.429Z,48.54
2023-02-06T18:35:28.400Z,48.26
2023-02-06T18:38:37.219Z,48.62
2023-02-06T18:41:57.992Z,48.62
2023-02-06T18:45:04.184Z,47.60
2023-02-06T18:48:10.421Z,48.89
2023-02-06T18:51:12.479Z,52.36
2023-02-06T18:54:15.781Z,54.27
2023-02-06T18:57:17.972Z,52.29
2023-02-06T19:00:22.373Z,54.01
2023-02-06T19:03:31.996Z,54.17
2023-02-06T19:06:39.425Z,52.73
2023-02-06T19:09:45.562Z,54.69
2023-02-06T19:12:47.818Z,53.08
2023-02-06T19:15:50.496Z,54.32
2023-02-06T19:18:52.804Z,52.90
2023-02-06T19:21:56.446Z,52.06
2023-02-06T19:24:58.608Z,53.34
2023-02-06T19:28:05.195Z,52.42
2023-02-06T19:31:08.949Z,54.91
2023-02-06T19:34:11.428Z,65.00
2023-02-06T19:37:14.118Z,74.73
2023-02-06T19:40:16.685Z,78.67
2023-02-06T19:43:18.911Z,79.46
2023-02-06T19:46:23.794Z,82.25
2023-02-06T19:49:27.107Z,87.97
2023-02-06T19:52:29.236Z,79.18
2023-02-06T19:55:31.816Z,78.86
2023-02-06T19:58:34.402Z,77.12
2023-02-06T20:01:36.642Z,76.80
2023-02-06T20:04:40.204Z,74.00
2023-02-06T20:07:49.726Z,72.82
2023-02-06T20:10:55.685Z,72.12
2023-02-06T20:14:01.107Z,71.05
2023-02-06T20:17:05.194Z,70.09
2023-02-06T20:20:11.615Z,69.46
2023-02-06T20:23:13.611Z,69.57
2023-02-06T20:26:20.025Z,69.51
2023-02-06T20:29:26.771Z,67.58
2023-02-06T20:32:30.056Z,67.47
2023-02-06T20:35:32.601Z,67.51
2023-02-06T20:38:34.850Z,63.70
2023-02-06T20:41:39.367Z,62.69
2023-02-06T20:44:44.166Z,61.13
2023-02-06T20:47:49.535Z,62.27
2023-02-06T20:51:03.602Z,59.42
2023-02-06T20:54:06.759Z,58.09
2023-02-06T20:57:11.294Z,59.03
2023-02-06T21:00:14.906Z,56.63
2023-02-06T21:03:20.259Z,55.92
2023-02-06T21:06:26.889Z,54.77
2023-02-06T21:09:29.205Z,55.70
2023-02-06T21:12:32.397Z,54.49
2023-02-06T21:15:34.640Z,54.29
2023-02-06T21:18:37.969Z,53.67
2023-02-06T21:21:41.050Z,54.70
2023-02-06T21:24:47.336Z,53.06
2023-02-06T21:27:49.989Z,59.33
2023-02-06T21:31:00.249Z,72.28
2023-02-06T21:34:18.257Z,70.71
2023-02-06T21:37:23.131Z,69.50
2023-02-06T21:40:27.804Z,70.29
2023-02-06T21:43:29.882Z,65.62
2023-02-06T21:46:32.508Z,65.99
2023-02-06T21:49:34.918Z,63.48
2023-02-06T21:52:39.081Z,62.59
2023-02-06T21:55:43.292Z,63.82
2023-02-06T21:58:45.881Z,61.77
2023-02-06T22:01:48.038Z,59.49
2023-02-06T22:04:50.200Z,58.23
2023-02-06T22:07:54.314Z,55.45
2023-02-06T22:10:56.332Z,56.28
2023-02-06T22:14:06.395Z,56.53
2023-02-06T22:17:08.783Z,56.06
2023-02-06T22:20:11.423Z,55.48
2023-02-06T22:23:13.796Z,54.91
2023-02-06T22:26:18.612Z,53.12
2023-02-06T22:29:21.810Z,54.61
2023-02-06T22:32:24.188Z,51.98
2023-02-06T22:35:26.878Z,52.33
2023-02-06T22:38:28.977Z,52.66
2023-02-06T22:41:31.429Z,50.95
2023-02-06T22:44:33.919Z,50.85
2023-02-06T22:47:36.448Z,49.82
2023-02-06T22:50:39.697Z,48.98
2023-02-06T22:53:42.506Z,49.12
2023-02-06T22:56:45.589Z,49.20
2023-02-06T22:59:47.810Z,50.10
2023-02-06T23:02:50.316Z,48.51
2023-02-06T23:05:52.626Z,49.66
2023-02-06T23:08:57.332Z,48.28
2023-02-06T23:12:07.343Z,48.17
2023-02-06T23:15:12.216Z,49.12
2023-02-06T23:18:14.478Z,47.54
2023-02-06T23:21:19.464Z,47.18
2023-02-06T23:24:21.934Z,46.85
2023-02-06T23:27:25.799Z,46.87
2023-02-06T23:30:31.146Z,46.58
2023-02-06T23:33:35.731Z,46.96
2023-02-06T23:36:38.208Z,46.66
2023-02-06T23:39:42.781Z,45.57
2023-02-06T23:42:45.536Z,45.11
2023-02-06T23:45:48.312Z,45.48
2023-02-06T23:48:51.606Z,45.87
2023-02-06T23:51:53.743Z,44.00
2023-02-06T23:54:57.189Z,44.87
2023-02-06T23:57:59.375Z,45.67
